White Hall, Arkansas
Current Conditions -  °F | °C
As of 9:53 AM on Tuesday 27 Jan 2015 (Local Time) from KPBF Reporting Station
Clear Clear  
Wind Chill: 56°   Ceiling: Unl
Heat Index: 56°   Visibility: 10mi
Dew Point: 37°   Wind: 12mph
Humidity: 49%   Direction: 10°N
Pressure: 30.15"   Gusts: NA
Location:  34.28°N, 92.1°W
Report Text: KPBF 271553Z AUTO 01010KT 10SM CLR 13/03 A3015 RMK AO2 SLP209 T01330028
Loading
Personal Weather Stations






























Interactive Weather Map New forecast layout! Learn more

10-Day Weather Forecast

Advertisements
Track Severe Weather on mobile